createdAt,value
2022-10-17T00:00:49.372Z,13.18
2022-10-17T00:01:49.413Z,13.18
2022-10-17T00:02:49.380Z,13.19
2022-10-17T00:03:49.333Z,13.18
2022-10-17T00:04:49.329Z,13.18
2022-10-17T00:05:49.702Z,13.16
2022-10-17T00:06:49.305Z,13.16
2022-10-17T00:07:49.281Z,13.18
2022-10-17T00:08:49.292Z,13.15
2022-10-17T00:09:49.253Z,13.15
2022-10-17T00:10:49.242Z,13.16
2022-10-17T00:11:49.221Z,13.13
2022-10-17T00:12:49.253Z,13.13
2022-10-17T00:13:49.222Z,13.13
2022-10-17T00:14:49.201Z,13.15
2022-10-17T00:15:49.181Z,13.13
2022-10-17T00:16:49.173Z,13.12
2022-10-17T00:17:49.153Z,13.13
2022-10-17T00:18:49.193Z,13.13
2022-10-17T00:19:49.209Z,13.15
2022-10-17T00:20:49.153Z,13.15
2022-10-17T00:21:49.113Z,13.13
2022-10-17T00:22:49.106Z,13.13
2022-10-17T00:23:49.113Z,13.13
2022-10-17T00:24:49.085Z,13.13
2022-10-17T00:25:49.085Z,13.13
2022-10-17T00:26:49.066Z,13.12
2022-10-17T00:27:49.046Z,13.12
2022-10-17T00:28:49.139Z,13.12
2022-10-17T00:29:49.046Z,13.12
2022-10-17T00:30:49.021Z,13.11
2022-10-17T00:31:49.012Z,13.11
2022-10-17T00:32:49.033Z,13.11
2022-10-17T00:33:48.994Z,13.09
2022-10-17T00:34:49.017Z,13.09
2022-10-17T00:35:48.965Z,13.09
2022-10-17T00:36:48.953Z,13.09
2022-10-17T00:37:48.929Z,13.09
2022-10-17T00:38:48.934Z,13.11
2022-10-17T00:39:48.920Z,13.08
2022-10-17T00:40:48.983Z,13.09
2022-10-17T00:41:48.885Z,13.08
2022-10-17T00:42:48.898Z,13.08
2022-10-17T00:43:48.877Z,13.05
2022-10-17T00:44:48.881Z,13.05
2022-10-17T00:45:48.850Z,13.05
2022-10-17T00:46:48.834Z,13.08
2022-10-17T00:47:48.818Z,13.05
2022-10-17T00:48:48.827Z,13.05
2022-10-17T00:49:48.885Z,13.04
2022-10-17T00:50:48.789Z,13.08
2022-10-17T00:51:48.785Z,13.09
2022-10-17T00:52:48.770Z,13.09
2022-10-17T00:53:48.759Z,13.12
2022-10-17T00:54:49.148Z,13.15
2022-10-17T00:55:48.718Z,13.13
2022-10-17T00:56:48.727Z,13.15
2022-10-17T00:57:48.714Z,13.13
2022-10-17T00:58:48.698Z,13.13
2022-10-17T00:59:48.701Z,13.12
2022-10-17T01:00:48.697Z,13.13
2022-10-17T01:01:48.716Z,13.12
2022-10-17T01:02:48.667Z,13.12
2022-10-17T01:03:48.653Z,13.12
2022-10-17T01:04:48.644Z,13.11
2022-10-17T01:05:48.629Z,13.12
2022-10-17T01:06:48.638Z,13.11
2022-10-17T01:07:48.594Z,13.11
2022-10-17T01:08:48.586Z,13.11
2022-10-17T01:09:48.590Z,13.11
2022-10-17T01:10:48.652Z,13.09
2022-10-17T01:11:48.546Z,13.11
2022-10-17T01:12:48.550Z,13.08
2022-10-17T01:13:48.538Z,13.09
2022-10-17T01:14:48.510Z,13.11
2022-10-17T01:15:48.539Z,13.09
2022-10-17T01:16:48.502Z,13.08
2022-10-17T01:17:48.482Z,13.09
2022-10-17T01:18:48.491Z,13.09
2022-10-17T01:19:48.459Z,13.09
2022-10-17T01:20:48.494Z,13.11
2022-10-17T01:21:48.439Z,13.09
2022-10-17T01:22:48.439Z,13.11
2022-10-17T01:23:48.411Z,13.09
2022-10-17T01:24:48.422Z,13.09
2022-10-17T01:25:48.402Z,13.11
2022-10-17T01:26:48.391Z,13.09
2022-10-17T01:27:48.385Z,13.08
2022-10-17T01:28:48.364Z,13.09
2022-10-17T01:29:48.342Z,13.08
2022-10-17T01:30:48.334Z,13.09
2022-10-17T01:31:48.330Z,13.05
2022-10-17T01:32:48.323Z,13.05
2022-10-17T01:33:48.304Z,13.08
2022-10-17T01:34:48.315Z,13.04
2022-10-17T01:35:48.307Z,13.08
2022-10-17T01:36:48.331Z,13.08
2022-10-17T01:37:48.328Z,13.05
2022-10-17T01:38:48.262Z,13.05
2022-10-17T01:39:48.234Z,13.05
2022-10-17T01:40:48.242Z,13.09
2022-10-17T01:41:48.211Z,13.08
2022-10-17T01:42:48.232Z,13.08
2022-10-17T01:43:48.215Z,13.05
2022-10-17T01:44:48.311Z,13.05
2022-10-17T01:45:48.366Z,13.05
2022-10-17T01:46:48.292Z,13.05
2022-10-17T01:47:48.268Z,13.05
2022-10-17T01:48:48.277Z,13.08
2022-10-17T01:49:48.495Z,13.09
2022-10-17T01:50:48.309Z,13.12
2022-10-17T01:51:48.323Z,13.11
2022-10-17T01:52:48.331Z,13.12
2022-10-17T01:53:48.335Z,13.12
2022-10-17T01:54:48.475Z,13.13
2022-10-17T01:55:48.367Z,13.13
2022-10-17T01:56:48.268Z,13.15
2022-10-17T01:57:48.163Z,13.13
2022-10-17T01:58:48.067Z,13.16
2022-10-17T01:59:48.411Z,13.15
2022-10-17T02:00:48.011Z,13.16
2022-10-17T02:01:48.067Z,13.13
2022-10-17T02:02:47.983Z,13.13
2022-10-17T02:03:47.956Z,13.13
2022-10-17T02:04:47.966Z,13.12
2022-10-17T02:05:47.942Z,13.11
2022-10-17T02:06:47.968Z,13.09
2022-10-17T02:07:47.912Z,13.08
2022-10-17T02:08:47.915Z,13.08
2022-10-17T02:09:47.887Z,13.08
2022-10-17T02:10:47.891Z,13.05
2022-10-17T02:11:47.887Z,13.08
2022-10-17T02:12:47.863Z,13.05
2022-10-17T02:13:47.866Z,13.04
2022-10-17T02:14:48.131Z,13.04
2022-10-17T02:15:47.827Z,13.04
2022-10-17T02:16:47.847Z,13.04
2022-10-17T02:17:47.811Z,13.03
2022-10-17T02:18:47.831Z,13.04
2022-10-17T02:19:47.785Z,13.04
2022-10-17T02:20:47.781Z,13.04
2022-10-17T02:21:47.775Z,13.03
2022-10-17T02:22:47.788Z,13.03
2022-10-17T02:23:47.741Z,13.04
2022-10-17T02:24:47.737Z,13.04
2022-10-17T02:25:47.709Z,13.01
2022-10-17T02:26:47.708Z,13.04
2022-10-17T02:27:47.703Z,13.03
2022-10-17T02:28:47.752Z,13.03
2022-10-17T02:29:47.679Z,13.03
2022-10-17T02:30:47.681Z,13.04
2022-10-17T02:31:47.653Z,13.01
2022-10-17T02:32:50.157Z,13.04
2022-10-17T02:33:47.654Z,13.04
2022-10-17T02:34:47.620Z,13.03
2022-10-17T02:35:47.606Z,13.01
2022-10-17T02:36:47.609Z,13.03
2022-10-17T02:37:47.612Z,13.03
2022-10-17T02:38:47.583Z,13.03
2022-10-17T02:39:47.553Z,13.08
2022-10-17T02:40:47.583Z,13.15
2022-10-17T02:41:47.588Z,13.22
2022-10-17T02:42:47.540Z,13.28
2022-10-17T02:43:47.520Z,13.30
2022-10-17T02:44:47.544Z,13.35
2022-10-17T02:45:47.503Z,13.42
2022-10-17T02:46:47.492Z,13.47
2022-10-17T02:47:47.452Z,13.52
2022-10-17T02:48:47.481Z,13.59
2022-10-17T02:49:47.432Z,13.65
2022-10-17T02:50:47.440Z,13.68
2022-10-17T02:51:47.414Z,13.71
2022-10-17T02:52:47.413Z,13.72
2022-10-17T02:53:47.400Z,13.72
2022-10-17T02:54:47.432Z,13.75
2022-10-17T02:55:47.368Z,13.77
2022-10-17T02:56:47.380Z,13.83
2022-10-17T02:57:47.353Z,13.89
2022-10-17T02:58:47.353Z,13.96
2022-10-17T02:59:47.340Z,14.07
2022-10-17T03:00:47.320Z,14.14
2022-10-17T03:01:47.325Z,14.15
2022-10-17T03:02:47.312Z,14.22
2022-10-17T03:03:47.284Z,14.25
2022-10-17T03:04:47.304Z,14.23
2022-10-17T03:05:47.277Z,14.25
2022-10-17T03:06:47.260Z,14.25
2022-10-17T03:07:47.244Z,14.26
2022-10-17T03:08:47.228Z,14.28
2022-10-17T03:09:47.244Z,14.29
2022-10-17T03:10:47.220Z,14.29
2022-10-17T03:11:47.184Z,14.30
2022-10-17T03:12:47.184Z,14.30
2022-10-17T03:13:47.177Z,14.29
2022-10-17T03:14:47.184Z,14.32
2022-10-17T03:15:47.220Z,14.33
2022-10-17T03:16:47.144Z,14.33
2022-10-17T03:17:47.150Z,14.35
2022-10-17T03:18:50.048Z,14.36
2022-10-17T03:19:47.122Z,14.36
2022-10-17T03:20:47.095Z,14.40
2022-10-17T03:21:47.121Z,14.40
2022-10-17T03:22:47.086Z,14.36
2022-10-17T03:23:47.460Z,14.36
2022-10-17T03:24:47.056Z,14.40
2022-10-17T03:25:47.065Z,14.44
2022-10-17T03:27:47.013Z,14.45
2022-10-17T03:28:50.636Z,14.45
2022-10-17T03:29:47.997Z,14.47
2022-10-17T03:30:46.992Z,14.50
2022-10-17T03:31:46.989Z,14.51
2022-10-17T03:32:46.967Z,14.54
2022-10-17T03:33:46.958Z,14.53
2022-10-17T03:34:47.066Z,14.55
2022-10-17T03:35:46.970Z,14.55
2022-10-17T03:36:46.925Z,14.55
2022-10-17T03:37:46.937Z,14.60
2022-10-17T03:38:47.016Z,14.63
2022-10-17T03:39:46.917Z,14.65
2022-10-17T03:40:46.978Z,14.65
2022-10-17T03:41:47.021Z,14.63
2022-10-17T03:42:47.037Z,14.63
2022-10-17T03:43:47.057Z,14.63
2022-10-17T03:44:47.085Z,14.63
2022-10-17T03:45:46.869Z,14.65
2022-10-17T03:46:46.824Z,14.68
2022-10-17T03:47:46.825Z,14.66
2022-10-17T03:48:46.790Z,14.68
2022-10-17T03:49:46.829Z,14.66
2022-10-17T03:50:46.782Z,14.65
2022-10-17T03:51:46.996Z,14.65
2022-10-17T03:52:46.764Z,14.62
2022-10-17T03:53:46.743Z,14.59
2022-10-17T03:54:46.710Z,14.58
2022-10-17T03:55:46.714Z,14.53
2022-10-17T03:56:46.844Z,14.53
2022-10-17T03:57:46.699Z,14.50
2022-10-17T03:58:46.671Z,14.47
2022-10-17T03:59:46.678Z,14.47
2022-10-17T04:00:46.659Z,14.43
2022-10-17T04:01:46.705Z,14.41
2022-10-17T04:02:46.642Z,14.37
2022-10-17T04:03:46.786Z,14.36
2022-10-17T04:04:46.605Z,14.35
2022-10-17T04:05:46.592Z,14.33
2022-10-17T04:06:46.577Z,14.36
2022-10-17T04:07:46.591Z,14.36
2022-10-17T04:08:46.898Z,14.37
2022-10-17T04:09:46.602Z,14.37
2022-10-17T04:10:46.602Z,14.44
2022-10-17T04:11:46.617Z,14.47
2022-10-17T04:12:46.553Z,14.48
2022-10-17T04:13:46.510Z,14.51
2022-10-17T04:14:46.490Z,14.50
2022-10-17T04:15:46.486Z,14.50
2022-10-17T04:16:46.499Z,14.51
2022-10-17T04:17:48.466Z,14.53
2022-10-17T04:18:46.441Z,14.58
2022-10-17T04:19:46.500Z,14.60
2022-10-17T04:20:46.430Z,14.63
2022-10-17T04:21:46.423Z,14.66
2022-10-17T04:22:46.424Z,14.70
2022-10-17T04:23:46.610Z,14.73
2022-10-17T04:24:46.507Z,14.81
2022-10-17T04:25:46.406Z,14.82
2022-10-17T04:26:46.363Z,14.84
2022-10-17T04:27:46.411Z,14.84
2022-10-17T04:28:46.619Z,14.85
2022-10-17T04:29:46.322Z,14.85
2022-10-17T04:30:47.442Z,14.85
2022-10-17T04:31:46.361Z,14.85
2022-10-17T04:32:46.374Z,14.82
2022-10-17T04:33:46.370Z,14.78
2022-10-17T04:34:46.322Z,14.78
2022-10-17T04:35:46.374Z,14.78
2022-10-17T04:36:46.242Z,14.77
2022-10-17T04:37:46.235Z,14.73
2022-10-17T04:38:46.230Z,14.73
2022-10-17T04:39:46.310Z,14.70
2022-10-17T04:40:46.219Z,14.68
2022-10-17T04:41:46.195Z,14.66
2022-10-17T04:42:46.183Z,14.66
2022-10-17T04:43:50.096Z,14.65
2022-10-17T04:44:47.145Z,14.65
2022-10-17T04:45:46.755Z,14.66
2022-10-17T04:46:46.131Z,14.66
2022-10-17T04:47:46.123Z,14.68
2022-10-17T04:48:46.112Z,14.68
2022-10-17T04:49:46.144Z,14.66
2022-10-17T04:50:46.150Z,14.65
2022-10-17T04:51:46.110Z,14.68
2022-10-17T04:52:46.074Z,14.65
2022-10-17T04:53:46.059Z,14.63
2022-10-17T04:54:46.066Z,14.63
2022-10-17T04:55:47.035Z,14.63
2022-10-17T04:56:46.048Z,14.62
2022-10-17T04:57:46.016Z,14.63
2022-10-17T04:58:45.990Z,14.66
2022-10-17T04:59:45.994Z,14.66
2022-10-17T05:00:45.985Z,14.66
2022-10-17T05:01:45.975Z,14.65
2022-10-17T05:02:45.962Z,14.69
2022-10-17T05:03:45.956Z,14.73
2022-10-17T05:04:45.928Z,14.81
2022-10-17T05:05:45.941Z,14.82
2022-10-17T05:06:45.907Z,14.84
2022-10-17T05:07:45.913Z,14.86
2022-10-17T05:08:45.906Z,14.86
2022-10-17T05:09:45.879Z,14.88
2022-10-17T05:10:45.958Z,14.86
2022-10-17T05:11:45.909Z,14.86
2022-10-17T05:12:45.838Z,14.85
2022-10-17T05:13:45.837Z,14.88
2022-10-17T05:14:46.255Z,14.91
2022-10-17T05:15:45.996Z,14.94
2022-10-17T05:16:45.812Z,14.99
2022-10-17T05:17:45.818Z,15.03
2022-10-17T05:18:49.432Z,15.09
2022-10-17T05:19:46.977Z,15.10
2022-10-17T05:20:45.962Z,15.11
2022-10-17T05:21:45.751Z,15.11
2022-10-17T05:22:45.761Z,15.11
2022-10-17T05:23:45.729Z,15.14
2022-10-17T05:24:45.716Z,15.17
2022-10-17T05:25:45.729Z,15.15
2022-10-17T05:26:45.677Z,15.17
2022-10-17T05:27:45.701Z,15.15
2022-10-17T05:28:45.728Z,15.11
2022-10-17T05:29:45.675Z,15.09
2022-10-17T05:30:45.645Z,15.04
2022-10-17T05:31:45.631Z,15.04
2022-10-17T05:32:45.937Z,15.02
2022-10-17T05:33:45.636Z,15.00
2022-10-17T05:34:45.587Z,15.00
2022-10-17T05:35:45.589Z,15.00
2022-10-17T05:36:45.573Z,14.99
2022-10-17T05:37:45.574Z,14.99
2022-10-17T05:38:45.559Z,14.99
2022-10-17T05:39:50.573Z,14.97
2022-10-17T05:40:46.531Z,14.99
2022-10-17T05:41:45.523Z,15.00
2022-10-17T05:42:45.507Z,15.00
2022-10-17T05:43:45.525Z,14.99
2022-10-17T05:44:45.487Z,14.99
2022-10-17T05:45:45.493Z,14.96
2022-10-17T05:46:45.758Z,14.94
2022-10-17T05:47:45.474Z,14.94
2022-10-17T05:48:45.442Z,14.92
2022-10-17T05:49:49.954Z,14.92
2022-10-17T05:50:46.435Z,14.91
2022-10-17T05:51:45.404Z,14.94
2022-10-17T05:52:47.212Z,14.92
2022-10-17T05:53:45.382Z,14.92
2022-10-17T05:54:45.378Z,14.92
2022-10-17T05:55:45.385Z,14.91
2022-10-17T05:56:45.372Z,14.89
2022-10-17T05:57:45.342Z,14.91
2022-10-17T05:58:55.182Z,14.88
2022-10-17T05:59:46.333Z,14.88
2022-10-17T06:01:45.339Z,14.86
2022-10-17T06:02:45.286Z,14.88
2022-10-17T06:03:45.293Z,14.88
2022-10-17T06:04:45.262Z,14.86
2022-10-17T06:05:45.254Z,14.86
2022-10-17T06:06:45.269Z,14.85
2022-10-17T06:07:45.234Z,14.85
2022-10-17T06:08:45.282Z,14.84
2022-10-17T06:10:45.186Z,14.84
2022-10-17T06:11:45.207Z,14.84
2022-10-17T06:12:45.195Z,14.84
2022-10-17T06:13:45.189Z,14.86
2022-10-17T06:14:45.226Z,14.85
2022-10-17T06:15:45.207Z,14.88
2022-10-17T06:16:45.190Z,14.88
2022-10-17T06:17:45.255Z,14.91
2022-10-17T06:18:45.336Z,14.91
2022-10-17T06:19:45.344Z,14.92
2022-10-17T06:20:46.178Z,14.94
2022-10-17T06:21:45.274Z,14.97
2022-10-17T06:22:45.266Z,14.97
2022-10-17T06:23:45.162Z,14.99
2022-10-17T06:24:45.414Z,15.00
2022-10-17T06:25:45.077Z,15.02
2022-10-17T06:26:45.010Z,15.02
2022-10-17T06:27:45.084Z,15.03
2022-10-17T06:28:45.025Z,15.06
2022-10-17T06:29:44.979Z,15.07
2022-10-17T06:30:44.962Z,15.14
2022-10-17T06:31:44.958Z,15.15
2022-10-17T06:32:45.426Z,15.18
2022-10-17T06:33:44.939Z,15.21
2022-10-17T06:34:44.922Z,15.25
2022-10-17T06:35:44.911Z,15.31
2022-10-17T06:36:44.926Z,15.33
2022-10-17T06:37:44.898Z,15.36
2022-10-17T06:38:44.899Z,15.39
2022-10-17T06:39:44.887Z,15.42
2022-10-17T06:40:44.847Z,15.43
2022-10-17T06:41:44.847Z,15.47
2022-10-17T06:42:44.839Z,15.51
2022-10-17T06:43:44.842Z,15.52
2022-10-17T06:44:44.815Z,15.57
2022-10-17T06:45:44.876Z,15.59
2022-10-17T06:46:44.784Z,15.64
2022-10-17T06:47:44.794Z,15.76
2022-10-17T06:48:44.771Z,15.77
2022-10-17T06:49:44.753Z,15.80
2022-10-17T06:50:44.739Z,15.84
2022-10-17T06:51:44.740Z,15.86
2022-10-17T06:52:45.239Z,15.86
2022-10-17T06:53:44.692Z,15.88
2022-10-17T06:54:45.399Z,15.88
2022-10-17T06:55:44.706Z,15.90
2022-10-17T06:56:44.679Z,15.92
2022-10-17T06:57:44.659Z,15.92
2022-10-17T06:58:44.664Z,15.95
2022-10-17T06:59:44.666Z,15.95
2022-10-17T07:00:44.671Z,15.97
2022-10-17T07:01:47.065Z,16.00
2022-10-17T07:02:44.609Z,16.04
2022-10-17T07:03:44.594Z,16.05
2022-10-17T07:04:44.593Z,16.09
2022-10-17T07:05:44.579Z,16.12
2022-10-17T07:06:44.559Z,16.15
2022-10-17T07:07:45.582Z,16.17
2022-10-17T07:08:44.560Z,16.21
2022-10-17T07:09:44.559Z,16.21
2022-10-17T07:10:44.511Z,16.29
2022-10-17T07:11:44.546Z,16.32
2022-10-17T07:12:44.599Z,16.35
2022-10-17T07:13:44.495Z,16.38
2022-10-17T07:14:44.499Z,16.38
2022-10-17T07:15:44.451Z,16.39
2022-10-17T07:16:44.443Z,16.42
2022-10-17T07:17:44.475Z,16.42
2022-10-17T07:18:44.416Z,16.42
2022-10-17T07:19:44.443Z,16.43
2022-10-17T07:20:44.391Z,16.46
2022-10-17T07:21:44.392Z,16.46
2022-10-17T07:22:44.395Z,16.47
2022-10-17T07:23:44.363Z,16.49
2022-10-17T07:24:44.453Z,16.51
2022-10-17T07:25:44.364Z,16.54
2022-10-17T07:26:44.325Z,16.57
2022-10-17T07:27:44.355Z,16.61
2022-10-17T07:28:44.345Z,16.65
2022-10-17T07:29:44.296Z,16.66
2022-10-17T07:30:44.291Z,16.71
2022-10-17T07:31:44.296Z,16.75
2022-10-17T07:32:44.265Z,16.76
2022-10-17T07:33:44.244Z,16.79
2022-10-17T07:34:44.252Z,16.84
2022-10-17T07:35:44.224Z,16.90
2022-10-17T07:36:44.208Z,16.94
2022-10-17T07:37:44.196Z,16.99
2022-10-17T07:38:44.211Z,17.05
2022-10-17T07:39:44.208Z,17.09
2022-10-17T07:40:44.161Z,17.14
2022-10-17T07:41:44.156Z,17.16
2022-10-17T07:42:44.142Z,17.22
2022-10-17T07:43:44.136Z,17.29
2022-10-17T07:44:44.117Z,17.38
2022-10-17T07:45:44.136Z,17.39
2022-10-17T07:46:44.104Z,17.42
2022-10-17T07:47:44.116Z,17.44
2022-10-17T07:48:44.067Z,17.45
2022-10-17T07:49:44.081Z,17.46
2022-10-17T07:50:44.056Z,17.49
2022-10-17T07:51:44.145Z,17.51
2022-10-17T07:52:44.040Z,17.57
2022-10-17T07:53:46.500Z,17.60
2022-10-17T07:54:44.015Z,17.60
2022-10-17T07:55:44.020Z,17.63
2022-10-17T07:56:43.976Z,17.63
2022-10-17T07:57:43.981Z,17.64
2022-10-17T07:58:44.040Z,17.67
2022-10-17T07:59:43.981Z,17.68
2022-10-17T08:00:44.035Z,17.70
2022-10-17T08:01:43.941Z,17.72
2022-10-17T08:02:43.919Z,17.76
2022-10-17T08:03:43.922Z,17.79
2022-10-17T08:04:43.908Z,17.83
2022-10-17T08:05:43.901Z,17.87
2022-10-17T08:06:43.877Z,17.94
2022-10-17T08:07:43.872Z,17.95
2022-10-17T08:08:43.880Z,17.98
2022-10-17T08:09:43.831Z,18.01
2022-10-17T08:10:43.860Z,18.03
2022-10-17T08:11:43.816Z,18.05
2022-10-17T08:12:43.813Z,18.13
2022-10-17T08:13:43.812Z,18.15
2022-10-17T08:14:43.784Z,18.20
2022-10-17T08:15:43.781Z,18.23
2022-10-17T08:16:43.783Z,18.26
2022-10-17T08:17:43.760Z,18.26
2022-10-17T08:18:43.752Z,18.26
2022-10-17T08:19:43.806Z,18.29
2022-10-17T08:20:43.833Z,18.31
2022-10-17T08:21:43.840Z,18.31
2022-10-17T08:22:43.900Z,18.34
2022-10-17T08:23:43.853Z,18.33
2022-10-17T08:24:43.828Z,18.35
2022-10-17T08:25:43.932Z,18.38
2022-10-17T08:26:46.155Z,18.45
2022-10-17T08:27:43.631Z,18.49
2022-10-17T08:28:43.709Z,18.60
2022-10-17T08:29:43.613Z,18.73
2022-10-17T08:30:43.613Z,18.77
2022-10-17T08:31:47.471Z,18.89
2022-10-17T08:32:43.584Z,18.99
2022-10-17T08:33:43.562Z,19.11
2022-10-17T08:34:43.564Z,19.15
2022-10-17T08:35:43.556Z,19.26
2022-10-17T08:36:43.544Z,19.30
2022-10-17T08:37:43.525Z,19.37
2022-10-17T08:38:43.910Z,19.45
2022-10-17T08:39:43.498Z,19.44
2022-10-17T08:40:43.516Z,19.44
2022-10-17T08:41:43.846Z,19.44
2022-10-17T08:42:43.464Z,19.45
2022-10-17T08:43:43.472Z,19.44
2022-10-17T08:44:43.444Z,19.36
2022-10-17T08:45:43.417Z,19.34
2022-10-17T08:46:43.437Z,19.31
2022-10-17T08:47:43.448Z,19.27
2022-10-17T08:48:46.288Z,19.26
2022-10-17T08:49:43.376Z,19.22
2022-10-17T08:50:43.389Z,19.24
2022-10-17T08:51:43.489Z,19.21
2022-10-17T08:52:43.557Z,19.21
2022-10-17T08:53:43.384Z,19.27
2022-10-17T08:54:43.336Z,19.30
2022-10-17T08:55:45.473Z,19.33
2022-10-17T08:56:48.937Z,19.37
2022-10-17T08:57:44.289Z,19.40
2022-10-17T08:58:43.304Z,19.44
2022-10-17T08:59:43.274Z,19.49
2022-10-17T09:00:43.283Z,19.52
2022-10-17T09:01:43.303Z,19.58
2022-10-17T09:02:43.313Z,19.67
2022-10-17T09:03:43.287Z,19.76
2022-10-17T09:04:43.234Z,19.85
2022-10-17T09:05:43.221Z,19.92
2022-10-17T09:06:43.203Z,20.02
2022-10-17T09:07:43.197Z,20.03
2022-10-17T09:08:43.193Z,20.09
2022-10-17T09:09:43.161Z,20.19
2022-10-17T09:10:43.173Z,20.22
2022-10-17T09:11:43.142Z,20.37
2022-10-17T09:12:43.153Z,20.56
2022-10-17T09:13:43.116Z,20.62
2022-10-17T09:14:43.120Z,20.78
2022-10-17T09:15:43.097Z,20.95
2022-10-17T09:16:43.101Z,20.95
2022-10-17T09:17:43.098Z,21.02
2022-10-17T09:18:43.073Z,21.00
2022-10-17T09:19:43.073Z,21.03
2022-10-17T09:20:43.042Z,21.03
2022-10-17T09:21:43.075Z,21.00
2022-10-17T09:22:43.143Z,20.95
2022-10-17T09:23:43.001Z,20.92
2022-10-17T09:24:43.105Z,20.95
2022-10-17T09:25:42.997Z,21.05
2022-10-17T09:26:42.985Z,21.14
2022-10-17T09:27:42.965Z,21.22
2022-10-17T09:28:43.026Z,21.30
2022-10-17T09:29:43.915Z,21.30
2022-10-17T09:30:45.573Z,21.21
2022-10-17T09:31:42.913Z,21.12
2022-10-17T09:32:42.915Z,21.12
2022-10-17T09:33:53.966Z,21.12
2022-10-17T09:34:43.918Z,21.27
2022-10-17T09:35:42.886Z,21.40
2022-10-17T09:36:42.885Z,21.37
2022-10-17T09:37:42.874Z,21.40
2022-10-17T09:38:42.837Z,21.46
2022-10-17T09:39:42.857Z,21.40
2022-10-17T09:40:42.819Z,21.46
2022-10-17T09:41:46.141Z,21.58
2022-10-17T09:42:42.830Z,21.58
2022-10-17T09:43:42.789Z,21.45
2022-10-17T09:44:42.817Z,21.35
2022-10-17T09:45:42.778Z,21.33
2022-10-17T09:46:42.758Z,21.37
2022-10-17T09:47:42.738Z,21.25
2022-10-17T09:48:42.767Z,21.14
2022-10-17T09:49:42.710Z,21.02
2022-10-17T09:50:42.749Z,20.99
2022-10-17T09:51:42.729Z,20.97
2022-10-17T09:52:42.693Z,20.88
2022-10-17T09:53:42.690Z,20.87
2022-10-17T09:54:42.692Z,20.84
2022-10-17T09:55:42.646Z,20.75
2022-10-17T09:56:42.671Z,20.75
2022-10-17T09:57:42.638Z,20.77
2022-10-17T09:58:42.632Z,20.81
2022-10-17T09:59:42.630Z,20.90
2022-10-17T10:00:42.663Z,21.03
2022-10-17T10:01:42.581Z,21.09
2022-10-17T10:02:42.592Z,21.11
2022-10-17T10:03:42.571Z,21.18
2022-10-17T10:05:03.264Z,21.18
2022-10-17T10:05:43.551Z,21.14
2022-10-17T10:06:42.555Z,21.12
2022-10-17T10:07:42.522Z,21.12
2022-10-17T10:08:42.515Z,21.17
2022-10-17T10:09:42.523Z,21.20
2022-10-17T10:10:42.623Z,21.22
2022-10-17T10:11:42.515Z,21.29
2022-10-17T10:12:42.491Z,21.33
2022-10-17T10:13:42.636Z,21.30
2022-10-17T10:14:46.239Z,21.32
2022-10-17T10:15:42.491Z,21.30
2022-10-17T10:16:42.494Z,21.36
2022-10-17T10:17:42.427Z,21.39
2022-10-17T10:18:42.866Z,21.37
2022-10-17T10:19:42.388Z,21.37
2022-10-17T10:20:42.407Z,21.39
2022-10-17T10:21:45.122Z,21.42
2022-10-17T10:22:42.375Z,21.42
2022-10-17T10:23:42.367Z,21.40
2022-10-17T10:24:42.333Z,21.39
2022-10-17T10:25:42.343Z,21.37
2022-10-17T10:26:42.298Z,21.36
2022-10-17T10:27:42.327Z,21.35
2022-10-17T10:28:42.476Z,21.35
2022-10-17T10:29:42.394Z,21.35
2022-10-17T10:30:42.340Z,21.36
2022-10-17T10:31:42.403Z,21.35
2022-10-17T10:32:42.283Z,21.36
2022-10-17T10:33:42.998Z,21.36
2022-10-17T10:34:42.272Z,21.39
2022-10-17T10:35:42.267Z,21.42
2022-10-17T10:36:42.337Z,21.46
2022-10-17T10:37:42.290Z,21.51
2022-10-17T10:38:42.348Z,21.54
2022-10-17T10:39:42.390Z,21.54
2022-10-17T10:40:42.291Z,21.54
2022-10-17T10:41:42.279Z,21.55
2022-10-17T10:42:42.199Z,21.52
2022-10-17T10:43:42.339Z,21.51
2022-10-17T10:44:42.467Z,21.51
2022-10-17T10:45:48.031Z,21.52
2022-10-17T10:46:43.080Z,21.52
2022-10-17T10:47:42.472Z,21.50
2022-10-17T10:48:42.101Z,21.51
2022-10-17T10:49:42.052Z,21.51
2022-10-17T10:50:45.259Z,21.52
2022-10-17T10:51:42.032Z,21.54
2022-10-17T10:52:42.002Z,21.54
2022-10-17T10:53:42.036Z,21.54
2022-10-17T10:54:41.984Z,21.52
2022-10-17T10:55:41.971Z,21.51
2022-10-17T10:56:41.955Z,21.52
2022-10-17T10:57:41.973Z,21.51
2022-10-17T10:58:42.982Z,21.52
2022-10-17T10:59:41.937Z,21.50
2022-10-17T11:00:41.937Z,21.51
2022-10-17T11:01:41.916Z,21.52
2022-10-17T11:02:41.902Z,21.55
2022-10-17T11:03:41.926Z,21.57
2022-10-17T11:04:41.872Z,21.55
2022-10-17T11:05:41.867Z,21.55
2022-10-17T11:06:41.843Z,21.55
2022-10-17T11:07:41.867Z,21.58
2022-10-17T11:08:41.827Z,21.60
2022-10-17T11:09:41.837Z,21.60
2022-10-17T11:10:41.826Z,21.62
2022-10-17T11:11:41.792Z,21.62
2022-10-17T11:12:41.826Z,21.62
2022-10-17T11:13:41.803Z,21.64
2022-10-17T11:14:41.768Z,21.66
2022-10-17T11:15:41.747Z,21.67
2022-10-17T11:16:41.729Z,21.66
2022-10-17T11:17:41.740Z,21.64
2022-10-17T11:18:41.708Z,21.61
2022-10-17T11:19:41.708Z,21.60
2022-10-17T11:20:41.687Z,21.61
2022-10-17T11:22:41.672Z,21.60
2022-10-17T11:23:41.660Z,21.57
2022-10-17T11:24:41.700Z,21.58
2022-10-17T11:25:41.642Z,21.58
2022-10-17T11:26:41.631Z,21.58
2022-10-17T11:27:41.619Z,21.58
2022-10-17T11:28:41.684Z,21.58
2022-10-17T11:29:41.611Z,21.61
2022-10-17T11:30:41.853Z,21.61
2022-10-17T11:31:41.592Z,21.61
2022-10-17T11:32:41.724Z,21.58
2022-10-17T11:33:41.552Z,21.57
2022-10-17T11:34:41.552Z,21.54
2022-10-17T11:35:41.520Z,21.54
2022-10-17T11:36:41.505Z,21.52
2022-10-17T11:37:41.525Z,21.48
2022-10-17T11:38:41.701Z,21.48
2022-10-17T11:39:41.519Z,21.48
2022-10-17T11:40:41.464Z,21.45
2022-10-17T11:41:41.484Z,21.45
2022-10-17T11:42:41.453Z,21.42
2022-10-17T11:43:41.496Z,21.39
2022-10-17T11:44:41.472Z,21.39
2022-10-17T11:45:41.403Z,21.37
2022-10-17T11:46:41.412Z,21.36
2022-10-17T11:47:41.392Z,21.33
2022-10-17T11:48:41.453Z,21.30
2022-10-17T11:49:42.170Z,21.29
2022-10-17T11:52:55.975Z,21.29
2022-10-17T11:53:42.345Z,21.29
2022-10-17T11:54:41.305Z,21.30
2022-10-17T11:55:41.317Z,21.30
2022-10-17T11:56:42.936Z,21.30
2022-10-17T11:57:41.296Z,21.32
2022-10-17T11:58:41.780Z,21.32
2022-10-17T11:59:41.288Z,21.30
2022-10-17T12:00:42.194Z,21.29
2022-10-17T12:01:41.249Z,21.25
2022-10-17T12:02:41.237Z,21.24
2022-10-17T12:03:41.424Z,21.21
2022-10-17T12:04:43.774Z,21.18
2022-10-17T12:05:42.200Z,21.18
2022-10-17T12:06:41.160Z,21.17
2022-10-17T12:08:41.163Z,21.14
2022-10-17T12:09:41.224Z,21.14
2022-10-17T12:10:41.217Z,21.14
2022-10-17T12:11:41.141Z,21.12
2022-10-17T12:12:41.098Z,21.09
2022-10-17T12:13:41.121Z,21.09
2022-10-17T12:14:41.095Z,21.09
2022-10-17T12:15:45.888Z,21.09
2022-10-17T12:17:41.073Z,21.03
2022-10-17T12:18:41.109Z,21.03
2022-10-17T12:19:41.021Z,21.02
2022-10-17T12:20:41.033Z,21.02
2022-10-17T12:21:42.849Z,21.00
2022-10-17T12:22:40.986Z,21.02
2022-10-17T12:23:40.981Z,21.02
2022-10-17T12:24:41.002Z,21.00
2022-10-17T12:26:40.993Z,21.00
2022-10-17T12:27:40.948Z,21.02
2022-10-17T12:28:41.003Z,21.00
2022-10-17T12:29:41.772Z,21.00
2022-10-17T12:30:40.945Z,21.00
2022-10-17T12:31:40.895Z,21.00
2022-10-17T12:33:03.739Z,20.97
2022-10-17T12:33:41.873Z,20.99
2022-10-17T12:34:40.917Z,20.99
2022-10-17T12:35:40.855Z,20.99
2022-10-17T12:36:40.846Z,20.99
2022-10-17T12:37:40.839Z,20.97
2022-10-17T12:38:40.881Z,20.96
2022-10-17T12:39:40.806Z,20.96
2022-10-17T12:40:42.227Z,20.95
2022-10-17T12:41:40.798Z,20.96
2022-10-17T12:42:40.798Z,20.95
2022-10-17T12:43:44.109Z,20.95
2022-10-17T12:44:40.839Z,20.96
2022-10-17T12:45:41.546Z,20.96
2022-10-17T12:46:41.489Z,20.97
2022-10-17T12:47:40.710Z,20.99
2022-10-17T12:48:40.838Z,20.97
2022-10-17T12:49:40.698Z,20.97
2022-10-17T12:50:40.791Z,20.99
2022-10-17T12:51:40.758Z,20.97
2022-10-17T12:52:40.695Z,20.99
2022-10-17T12:53:40.658Z,20.97
2022-10-17T12:54:47.322Z,20.96
2022-10-17T12:55:41.658Z,20.95
2022-10-17T12:56:40.629Z,20.95
2022-10-17T12:57:40.602Z,20.95
2022-10-17T12:58:40.598Z,20.95
2022-10-17T12:59:41.460Z,20.90
2022-10-17T13:00:40.809Z,20.88
2022-10-17T13:01:40.646Z,20.88